Moscow, Indiana
Current Conditions -  °F | °C
As of 2:53 PM on Sunday 23 Nov 2014 (Local Time) from KGEZ Reporting Station
Moderate Rain Moderate Rain  
Wind Chill: 55°   Ceiling: 2800
Heat Index: 55°   Visibility: 4mi
Dew Point: 50°   Wind: 16mph
Humidity: 83%   Direction: 140°SE
Pressure: 29.61"   Gusts: NA
Location:  39.4961°N, 85.5177°W
Report Text: KGEZ 231953Z AUTO 14014KT 4SM RA OVC028 13/10 A2961 RMK AO2 PK WND 15026/1926 SLP028 P0006 T01280100
Loading
Personal Weather Stations






























Interactive Weather Map New forecast layout! Learn more

10-Day Weather Forecast

Advertisements
Track Severe Weather on mobile